createdAt,value
2023-03-17T10:39:10.543Z,500.00
2023-03-17T10:43:10.969Z,500.00
2023-03-17T10:47:11.090Z,400.00
2023-03-17T10:51:10.727Z,400.00
2023-03-17T10:55:10.867Z,400.00
2023-03-17T10:59:10.976Z,400.00
2023-03-17T11:03:10.981Z,400.00
2023-03-17T11:07:10.982Z,400.00
2023-03-17T11:11:11.450Z,400.00
2023-03-17T11:15:11.474Z,400.00
2023-03-17T11:19:11.453Z,400.00
2023-03-17T11:23:11.469Z,400.00
2023-03-17T11:27:11.046Z,400.00
2023-03-17T11:31:11.473Z,400.00
2023-03-17T11:35:11.466Z,505.00
2023-03-17T11:39:11.461Z,622.00
2023-03-17T11:43:11.476Z,643.00
2023-03-17T11:47:11.287Z,738.00
2023-03-17T11:51:11.260Z,443.00
2023-03-17T11:55:11.462Z,828.00
2023-03-17T11:59:11.217Z,400.00
2023-03-17T12:03:11.239Z,400.00
2023-03-17T12:07:11.471Z,527.00
2023-03-17T12:11:11.102Z,460.00
2023-03-17T12:15:11.492Z,400.00
2023-03-17T12:19:11.532Z,400.00
2023-03-17T12:23:10.986Z,400.00
2023-03-17T12:27:11.007Z,617.00
2023-03-17T12:31:11.048Z,2895.00
2023-03-17T12:35:10.918Z,2585.00
2023-03-17T12:39:10.882Z,2262.00
2023-03-17T12:43:10.829Z,3074.00
2023-03-17T12:47:11.030Z,2858.00
2023-03-17T12:51:10.994Z,2795.00
2023-03-17T12:55:10.949Z,2787.00
2023-03-17T12:59:10.892Z,2980.00
2023-03-17T13:03:11.028Z,3069.00
2023-03-17T13:07:11.007Z,3048.00
2023-03-17T13:11:11.009Z,3129.00
2023-03-17T13:15:11.012Z,3061.00
2023-03-17T13:19:10.751Z,3113.00
2023-03-17T13:23:10.731Z,3018.00
2023-03-17T13:27:10.700Z,3006.00
2023-03-17T13:31:10.692Z,3084.00
2023-03-17T13:35:10.765Z,3088.00
2023-03-17T13:39:19.280Z,3018.00
2023-03-17T13:43:11.924Z,2959.00
2023-03-17T13:47:10.879Z,2974.00
2023-03-17T13:51:12.277Z,2986.00
2023-03-17T13:55:10.912Z,2910.00
2023-03-17T13:59:11.022Z,2828.00
2023-03-17T14:03:10.860Z,2782.00
2023-03-17T14:07:10.815Z,2924.00
2023-03-17T14:11:10.754Z,2893.00
2023-03-17T14:15:10.719Z,2851.00
2023-03-17T14:19:10.718Z,2806.00
2023-03-17T14:23:10.685Z,2761.00
2023-03-17T14:27:10.642Z,2763.00
2023-03-17T14:31:10.600Z,2809.00
2023-03-17T14:35:10.688Z,2731.00
2023-03-17T14:39:10.880Z,2634.00
2023-03-17T14:43:11.121Z,2655.00
2023-03-17T14:47:12.235Z,2765.00
2023-03-17T14:51:12.052Z,2307.00
2023-03-17T14:55:11.562Z,2225.00
2023-03-17T14:59:11.541Z,2392.00
2023-03-17T15:03:11.543Z,2432.00
2023-03-17T15:07:11.530Z,2461.00
2023-03-17T15:11:11.553Z,2549.00
2023-03-17T15:15:11.546Z,2624.00
2023-03-17T15:19:11.312Z,2640.00
2023-03-17T15:23:11.267Z,2696.00
2023-03-17T15:27:11.249Z,2658.00
2023-03-17T15:31:11.254Z,2678.00
2023-03-17T15:35:11.312Z,2592.00
2023-03-17T15:39:11.168Z,2568.00
2023-03-17T15:43:11.208Z,2640.00
2023-03-17T15:47:11.368Z,2609.00
2023-03-17T15:51:11.584Z,2642.00
2023-03-17T15:55:11.799Z,2794.00
2023-03-17T15:59:11.755Z,2630.00
2023-03-17T16:03:11.749Z,2461.00
2023-03-17T16:07:11.671Z,2562.00
2023-03-17T16:11:11.650Z,2463.00
2023-03-17T16:15:22.519Z,2612.00
2023-03-17T16:19:12.571Z,2678.00
2023-03-17T16:23:11.591Z,2661.00
2023-03-17T16:27:11.704Z,2755.00
2023-03-17T16:31:11.786Z,2861.00
2023-03-17T16:35:11.640Z,2711.00
2023-03-17T16:39:11.610Z,2695.00
2023-03-17T16:43:24.226Z,2801.00
2023-03-17T16:47:12.549Z,2682.00
2023-03-17T16:51:11.509Z,2655.00
2023-03-17T16:55:11.709Z,2729.00
2023-03-17T16:59:11.703Z,2784.00
2023-03-17T17:03:11.797Z,2675.00
2023-03-17T17:07:11.603Z,2766.00
2023-03-17T17:11:11.618Z,2777.00
2023-03-17T17:15:11.553Z,2678.00
2023-03-17T17:19:11.508Z,2743.00
2023-03-17T17:23:11.492Z,2788.00
2023-03-17T17:27:11.436Z,2515.00
2023-03-17T17:31:11.481Z,2295.00
2023-03-17T17:35:11.367Z,2222.00
2023-03-17T17:39:11.499Z,2158.00
2023-03-17T17:43:11.745Z,2120.00
2023-03-17T17:47:11.904Z,2065.00
2023-03-17T17:51:12.053Z,2089.00
2023-03-17T17:55:12.147Z,2135.00
2023-03-17T17:59:12.247Z,2182.00
2023-03-17T18:03:12.354Z,2184.00
2023-03-17T18:07:12.468Z,2137.00
2023-03-17T18:11:12.559Z,2020.00
2023-03-17T18:15:12.602Z,2052.00
2023-03-17T18:19:12.642Z,2043.00
2023-03-17T18:23:12.691Z,2083.00
2023-03-17T18:27:12.774Z,2124.00
2023-03-17T18:31:12.847Z,2059.00
2023-03-17T18:35:12.914Z,2076.00
2023-03-17T18:39:12.931Z,2048.00
2023-03-17T18:43:12.986Z,2078.00
2023-03-17T18:47:13.072Z,2038.00
2023-03-17T18:51:13.084Z,2069.00
2023-03-17T18:55:13.119Z,2027.00
2023-03-17T18:59:13.174Z,2093.00
2023-03-17T19:03:13.297Z,2032.00
2023-03-17T19:07:13.319Z,2028.00
2023-03-17T19:11:13.349Z,2057.00
2023-03-17T19:15:13.416Z,2018.00
2023-03-17T19:19:13.444Z,2060.00
2023-03-17T19:23:13.447Z,2095.00
2023-03-17T19:27:13.447Z,2081.00
2023-03-17T19:31:13.565Z,2151.00
2023-03-17T19:35:13.483Z,2204.00
2023-03-17T19:39:13.466Z,2237.00
2023-03-17T19:43:18.129Z,2212.00
2023-03-17T19:47:14.434Z,2186.00
2023-03-17T19:51:13.397Z,2147.00
2023-03-17T19:55:13.365Z,2114.00
2023-03-17T19:59:13.334Z,2099.00
2023-03-17T20:03:13.343Z,2133.00
2023-03-17T20:07:13.393Z,2119.00
2023-03-17T20:11:13.446Z,2128.00
2023-03-17T20:15:13.448Z,2029.00
2023-03-17T20:19:13.443Z,2019.00
2023-03-17T20:23:13.435Z,1995.00
2023-03-17T20:27:13.399Z,2002.00
2023-03-17T20:31:13.437Z,1966.00
2023-03-17T20:35:13.382Z,1954.00
2023-03-17T20:39:13.449Z,1951.00
2023-03-17T20:43:13.518Z,1916.00
2023-03-17T20:47:13.582Z,1862.00
2023-03-17T20:51:13.667Z,1928.00
2023-03-17T20:55:13.740Z,1913.00
2023-03-17T20:59:13.755Z,1828.00
2023-03-17T21:03:13.814Z,1964.00
2023-03-17T21:07:13.804Z,1841.00
2023-03-17T21:11:13.890Z,1789.00
2023-03-17T21:15:14.000Z,1779.00
2023-03-17T21:19:13.930Z,1880.00
2023-03-17T21:23:13.984Z,1797.00
2023-03-17T21:27:14.000Z,1771.00
2023-03-17T21:31:14.075Z,1798.00
2023-03-17T21:35:14.039Z,1869.00
2023-03-17T21:39:14.059Z,1823.00
2023-03-17T21:43:14.005Z,1912.00
2023-03-17T21:47:14.003Z,1881.00
2023-03-17T21:51:13.981Z,1715.00
2023-03-17T21:55:14.003Z,1873.00
2023-03-17T21:59:13.965Z,1876.00
2023-03-17T22:03:13.977Z,1857.00
2023-03-17T22:07:13.941Z,1806.00
2023-03-17T22:11:13.930Z,1821.00
2023-03-17T22:15:13.934Z,1832.00
2023-03-17T22:19:14.135Z,1901.00
2023-03-17T22:23:14.115Z,1892.00
2023-03-17T22:27:14.077Z,1998.00
2023-03-17T22:31:14.175Z,2029.00
2023-03-17T22:35:14.084Z,1983.00
2023-03-17T22:39:14.046Z,1968.00
2023-03-17T22:43:14.051Z,1859.00
2023-03-17T22:47:14.015Z,1837.00
2023-03-17T22:51:14.238Z,1828.00
2023-03-17T22:55:14.230Z,1783.00
2023-03-17T22:59:14.219Z,1805.00
2023-03-17T23:03:14.247Z,1805.00
2023-03-17T23:07:14.227Z,1837.00
2023-03-17T23:11:14.257Z,1778.00
2023-03-17T23:15:14.280Z,1853.00
2023-03-17T23:19:14.249Z,1851.00
2023-03-17T23:23:13.878Z,1830.00
2023-03-17T23:27:13.911Z,1876.00
2023-03-17T23:31:13.948Z,1845.00
2023-03-17T23:35:13.895Z,1884.00
2023-03-17T23:39:14.241Z,1895.00
2023-03-17T23:43:13.830Z,1864.00
2023-03-17T23:47:14.251Z,1904.00
2023-03-17T23:51:14.248Z,1896.00
2023-03-17T23:55:14.253Z,1829.00
2023-03-17T23:59:13.847Z,1852.00
